createdAt,value
2022-08-30T00:01:14.087Z,18.60
2022-08-30T00:03:45.881Z,18.48
2022-08-30T00:06:15.421Z,18.27
2022-08-30T00:08:44.784Z,18.26
2022-08-30T00:11:16.048Z,18.14
2022-08-30T00:13:45.685Z,18.11
2022-08-30T00:16:13.866Z,18.09
2022-08-30T00:18:41.051Z,18.06
2022-08-30T00:21:09.376Z,18.08
2022-08-30T00:23:37.097Z,18.09
2022-08-30T00:26:05.493Z,18.13
2022-08-30T00:28:33.948Z,18.12
2022-08-30T00:31:02.180Z,18.12
2022-08-30T00:33:29.564Z,18.05
2022-08-30T00:35:56.513Z,17.96
2022-08-30T00:38:24.248Z,17.93
2022-08-30T00:40:52.575Z,17.95
2022-08-30T00:43:28.035Z,17.62
2022-08-30T00:45:56.143Z,17.47
2022-08-30T00:48:23.855Z,17.50
2022-08-30T00:50:56.756Z,17.47
2022-08-30T00:53:33.477Z,17.46
2022-08-30T00:56:01.695Z,17.60
2022-08-30T00:58:34.737Z,17.52
2022-08-30T01:01:03.086Z,17.59
2022-08-30T01:03:30.810Z,17.41
2022-08-30T01:05:58.935Z,17.43
2022-08-30T01:08:26.465Z,17.45
2022-08-30T01:10:55.175Z,17.70
2022-08-30T01:13:23.737Z,17.71
2022-08-30T01:15:51.209Z,17.85
2022-08-30T01:18:22.230Z,17.97
2022-08-30T01:21:08.372Z,17.81
2022-08-30T01:23:39.400Z,17.79
2022-08-30T01:26:07.700Z,17.78
2022-08-30T01:28:35.458Z,17.75
2022-08-30T01:31:02.900Z,17.77
2022-08-30T01:33:30.561Z,17.80
2022-08-30T01:36:03.793Z,17.76
2022-08-30T01:38:47.762Z,17.73
2022-08-30T01:41:21.179Z,17.76
2022-08-30T01:43:50.069Z,17.74
2022-08-30T01:46:20.410Z,17.61
2022-08-30T01:48:52.991Z,17.61
2022-08-30T01:51:24.994Z,17.60
2022-08-30T01:53:52.369Z,17.56
2022-08-30T01:56:20.189Z,17.60
2022-08-30T01:58:47.308Z,17.62
2022-08-30T02:01:19.736Z,17.53
2022-08-30T02:03:47.381Z,17.58
2022-08-30T02:06:19.753Z,17.68
2022-08-30T02:08:47.012Z,17.76
2022-08-30T02:11:14.745Z,17.84
2022-08-30T02:13:44.030Z,17.75
2022-08-30T02:16:16.346Z,17.75
2022-08-30T02:18:43.894Z,17.69
2022-08-30T02:21:12.705Z,17.67
2022-08-30T02:23:39.810Z,17.54
2022-08-30T02:26:06.775Z,17.48
2022-08-30T02:28:34.027Z,17.60
2022-08-30T02:31:01.475Z,17.57
2022-08-30T02:33:28.680Z,17.59
2022-08-30T02:35:56.173Z,17.50
2022-08-30T02:38:23.769Z,17.37
2022-08-30T02:40:51.756Z,17.28
2022-08-30T02:43:19.792Z,17.21
2022-08-30T02:45:46.771Z,17.15
2022-08-30T02:48:13.943Z,17.04
2022-08-30T02:50:47.648Z,17.05
2022-08-30T02:53:16.393Z,17.05
2022-08-30T02:55:44.277Z,16.95
2022-08-30T02:58:11.264Z,16.95
2022-08-30T03:00:39.478Z,16.97
2022-08-30T03:03:07.495Z,16.99
2022-08-30T03:05:35.229Z,17.03
2022-08-30T03:08:04.898Z,16.84
2022-08-30T03:10:31.803Z,16.95
2022-08-30T03:12:58.670Z,16.93
2022-08-30T03:15:25.738Z,16.92
2022-08-30T03:17:54.878Z,16.86
2022-08-30T03:20:23.877Z,16.84
2022-08-30T03:22:51.402Z,16.86
2022-08-30T03:25:20.582Z,16.78
2022-08-30T03:27:50.565Z,16.73
2022-08-30T03:30:19.802Z,16.80
2022-08-30T03:32:47.468Z,16.80
2022-08-30T03:35:15.319Z,16.83
2022-08-30T03:37:42.275Z,16.79
2022-08-30T03:40:11.445Z,16.74
2022-08-30T03:42:38.946Z,16.64
2022-08-30T03:45:10.931Z,16.63
2022-08-30T03:47:37.831Z,16.69
2022-08-30T03:50:09.289Z,16.68
2022-08-30T03:52:36.148Z,16.66
2022-08-30T03:55:03.609Z,16.61
2022-08-30T03:57:30.457Z,16.62
2022-08-30T03:59:58.492Z,16.66
2022-08-30T04:02:25.731Z,16.68
2022-08-30T04:04:52.606Z,16.63
2022-08-30T04:07:19.589Z,16.57
2022-08-30T04:09:47.334Z,16.63
2022-08-30T04:12:14.352Z,16.70
2022-08-30T04:14:45.271Z,16.75
2022-08-30T04:17:12.154Z,16.79
2022-08-30T04:19:39.042Z,16.75
2022-08-30T04:22:06.021Z,16.65
2022-08-30T04:24:34.403Z,16.55
2022-08-30T04:27:01.494Z,16.50
2022-08-30T04:29:28.385Z,16.44
2022-08-30T04:31:55.293Z,16.43
2022-08-30T04:34:22.596Z,16.43
2022-08-30T04:36:50.230Z,16.50
2022-08-30T04:39:20.161Z,16.57
2022-08-30T04:41:47.154Z,16.55
2022-08-30T04:44:19.347Z,16.59
2022-08-30T04:46:47.008Z,16.56
2022-08-30T04:49:14.467Z,16.55
2022-08-30T04:51:41.503Z,16.49
2022-08-30T04:54:08.382Z,16.51
2022-08-30T04:56:35.234Z,16.51
2022-08-30T04:59:02.161Z,16.50
2022-08-30T05:01:44.512Z,16.58
2022-08-30T05:04:13.897Z,16.58
2022-08-30T05:06:41.113Z,16.63
2022-08-30T05:09:07.955Z,16.60
2022-08-30T05:11:35.025Z,16.51
2022-08-30T05:14:01.966Z,16.56
2022-08-30T05:16:28.905Z,16.54
2022-08-30T05:18:56.028Z,16.59
2022-08-30T05:21:26.438Z,16.72
2022-08-30T05:23:55.500Z,16.72
2022-08-30T05:26:29.010Z,16.83
2022-08-30T05:28:56.656Z,17.00
2022-08-30T05:31:31.021Z,17.19
2022-08-30T05:33:58.750Z,17.35
2022-08-30T05:36:29.187Z,17.51
2022-08-30T05:38:57.161Z,17.72
2022-08-30T05:41:26.588Z,17.82
2022-08-30T05:43:56.715Z,18.09
2022-08-30T05:46:24.747Z,18.18
2022-08-30T05:48:52.196Z,18.31
2022-08-30T05:51:22.468Z,18.45
2022-08-30T05:53:51.648Z,18.66
2022-08-30T05:56:24.906Z,18.85
2022-08-30T05:58:54.067Z,19.06
2022-08-30T06:01:28.070Z,19.34
2022-08-30T06:04:00.366Z,19.63
2022-08-30T06:06:33.533Z,19.89
2022-08-30T06:09:00.573Z,20.20
2022-08-30T06:11:28.033Z,20.47
2022-08-30T06:13:55.873Z,20.65
2022-08-30T06:16:26.660Z,20.71
2022-08-30T06:18:55.653Z,20.60
2022-08-30T06:21:32.008Z,20.69
2022-08-30T06:23:59.628Z,20.91
2022-08-30T06:26:28.383Z,21.25
2022-08-30T06:28:56.770Z,21.59
2022-08-30T06:31:26.026Z,21.94
2022-08-30T06:33:53.477Z,22.23
2022-08-30T06:36:24.163Z,22.54
2022-08-30T06:38:54.404Z,22.82
2022-08-30T06:41:26.664Z,23.26
2022-08-30T06:43:54.478Z,23.55
2022-08-30T06:46:26.163Z,23.74
2022-08-30T06:48:56.159Z,23.93
2022-08-30T06:51:32.331Z,23.77
2022-08-30T06:54:02.647Z,24.11
2022-08-30T06:56:31.247Z,24.38
2022-08-30T06:58:58.428Z,24.65
2022-08-30T07:01:29.549Z,24.68
2022-08-30T07:03:57.214Z,23.92
2022-08-30T07:06:25.569Z,23.72
2022-08-30T07:08:56.184Z,23.91
2022-08-30T07:11:42.201Z,23.72
2022-08-30T07:14:09.254Z,24.06
2022-08-30T07:16:36.851Z,24.60
2022-08-30T07:19:06.762Z,24.67
2022-08-30T07:21:43.801Z,25.07
2022-08-30T07:24:12.564Z,25.50
2022-08-30T07:26:46.436Z,25.38
2022-08-30T07:29:13.464Z,25.37
2022-08-30T07:31:40.494Z,25.71
2022-08-30T07:34:08.465Z,26.07
2022-08-30T07:36:37.461Z,26.39
2022-08-30T07:39:06.557Z,25.92
2022-08-30T07:41:38.761Z,26.58
2022-08-30T07:44:08.157Z,26.95
2022-08-30T07:46:36.018Z,27.12
2022-08-30T07:49:03.908Z,27.24
2022-08-30T07:51:32.198Z,27.57
2022-08-30T07:54:00.401Z,27.55
2022-08-30T07:56:27.836Z,27.71
2022-08-30T07:58:54.815Z,27.89
2022-08-30T08:01:23.483Z,27.44
2022-08-30T08:03:51.215Z,27.32
2022-08-30T08:06:22.091Z,27.32
2022-08-30T08:08:49.705Z,27.59
2022-08-30T08:11:30.409Z,27.53
2022-08-30T08:14:00.072Z,27.87
2022-08-30T08:16:30.275Z,28.03
2022-08-30T08:18:57.637Z,27.99
2022-08-30T08:21:26.329Z,28.40
2022-08-30T08:23:53.788Z,28.89
2022-08-30T08:26:22.124Z,29.02
2022-08-30T08:28:49.322Z,28.84
2022-08-30T08:31:19.310Z,28.87
2022-08-30T08:33:46.460Z,28.44
2022-08-30T08:36:13.914Z,28.89
2022-08-30T08:38:41.286Z,28.63
2022-08-30T08:41:39.663Z,29.25
2022-08-30T08:44:16.897Z,29.82
2022-08-30T08:47:03.501Z,29.79
2022-08-30T08:49:32.154Z,29.85
2022-08-30T08:52:19.878Z,30.11
2022-08-30T08:54:59.158Z,29.93
2022-08-30T08:57:32.157Z,30.55
2022-08-30T08:59:59.222Z,30.74
2022-08-30T09:02:40.804Z,30.33
2022-08-30T09:05:10.046Z,29.70
2022-08-30T09:07:42.810Z,30.35
2022-08-30T09:10:09.721Z,30.59
2022-08-30T09:12:36.749Z,30.30
2022-08-30T09:15:16.974Z,30.55
2022-08-30T09:17:59.685Z,30.37
2022-08-30T09:20:41.055Z,29.82
2022-08-30T09:23:14.284Z,29.87
2022-08-30T09:26:02.324Z,30.13
2022-08-30T09:28:34.163Z,30.53
2022-08-30T09:34:01.699Z,30.92
2022-08-30T09:36:53.549Z,30.74
2022-08-30T09:39:33.790Z,30.66
2022-08-30T09:42:23.815Z,30.60
2022-08-30T09:44:51.344Z,30.76
2022-08-30T09:47:43.426Z,30.76
2022-08-30T09:50:17.930Z,30.77
2022-08-30T09:53:11.837Z,30.73
2022-08-30T09:55:52.168Z,31.35
2022-08-30T09:58:48.350Z,31.65
2022-08-30T10:01:29.198Z,31.67
2022-08-30T10:04:14.748Z,31.15
2022-08-30T10:07:07.289Z,31.54
2022-08-30T10:09:47.793Z,30.86
2022-08-30T10:12:34.433Z,30.98
2022-08-30T10:15:08.023Z,31.12
2022-08-30T10:17:56.837Z,31.36
2022-08-30T10:20:38.795Z,31.36
2022-08-30T10:23:13.337Z,31.19
2022-08-30T10:25:52.032Z,31.29
2022-08-30T10:28:34.786Z,31.04
2022-08-30T10:31:19.181Z,31.33
2022-08-30T10:33:57.177Z,31.01
2022-08-30T10:36:36.129Z,31.58
2022-08-30T10:39:04.261Z,31.64
2022-08-30T10:41:31.581Z,31.69
2022-08-30T10:44:11.882Z,32.49
2022-08-30T10:47:35.129Z,33.00
2022-08-30T10:50:16.340Z,32.79
2022-08-30T10:53:03.773Z,32.55
2022-08-30T10:55:36.669Z,33.02
2022-08-30T10:58:06.429Z,32.92
2022-08-30T11:01:14.693Z,32.55
2022-08-30T11:04:18.638Z,32.73
2022-08-30T11:07:09.822Z,33.03
2022-08-30T11:10:17.123Z,33.39
2022-08-30T11:13:16.431Z,33.77
2022-08-30T11:16:15.321Z,34.08
2022-08-30T11:18:51.137Z,33.76
2022-08-30T11:21:28.076Z,33.39
2022-08-30T11:24:24.111Z,32.93
2022-08-30T11:26:57.183Z,33.30
2022-08-30T11:29:27.312Z,32.57
2022-08-30T11:32:23.628Z,32.57
2022-08-30T11:34:58.202Z,32.78
2022-08-30T11:37:43.525Z,33.82
2022-08-30T11:40:20.595Z,33.57
2022-08-30T11:42:50.966Z,33.73
2022-08-30T11:45:25.240Z,33.64
2022-08-30T11:49:05.359Z,32.51
2022-08-30T11:52:08.488Z,33.01
2022-08-30T11:54:53.230Z,33.22
2022-08-30T11:57:52.785Z,34.01
2022-08-30T12:00:34.396Z,34.14
2022-08-30T12:03:06.830Z,34.02
2022-08-30T12:05:39.743Z,34.36
2022-08-30T12:08:24.178Z,35.15
2022-08-30T12:11:03.046Z,34.66
2022-08-30T12:13:39.044Z,34.36
2022-08-30T12:16:35.681Z,34.77
2022-08-30T12:19:21.095Z,34.24
2022-08-30T12:22:00.947Z,34.39
2022-08-30T12:24:43.607Z,34.93
2022-08-30T12:27:32.534Z,34.78
2022-08-30T12:30:08.293Z,34.47
2022-08-30T12:32:46.329Z,34.62
2022-08-30T12:35:29.325Z,35.05
2022-08-30T12:38:08.480Z,34.74
2022-08-30T12:40:35.470Z,34.14
2022-08-30T12:43:07.746Z,34.71
2022-08-30T12:45:42.944Z,35.64
2022-08-30T12:48:18.148Z,35.12
2022-08-30T12:50:55.230Z,34.99
2022-08-30T12:53:34.592Z,35.73
2022-08-30T12:56:10.242Z,36.75
2022-08-30T12:58:51.920Z,36.68
2022-08-30T13:01:25.835Z,37.18
2022-08-30T13:04:20.562Z,36.07
2022-08-30T13:07:01.925Z,35.92
2022-08-30T13:09:37.309Z,35.31
2022-08-30T13:12:13.197Z,35.27
2022-08-30T13:14:45.038Z,35.61
2022-08-30T13:17:25.926Z,36.59
2022-08-30T13:20:30.044Z,37.63
2022-08-30T13:23:08.802Z,38.72
2022-08-30T13:25:38.541Z,38.05
2022-08-30T13:28:07.982Z,38.54
2022-08-30T13:30:35.656Z,39.11
2022-08-30T13:33:02.991Z,37.81
2022-08-30T13:35:30.901Z,37.81
2022-08-30T13:38:00.645Z,39.12
2022-08-30T13:40:27.859Z,38.82
2022-08-30T13:42:54.783Z,39.87
2022-08-30T13:48:11.326Z,41.53
2022-08-30T13:50:38.898Z,42.20
2022-08-30T13:53:05.781Z,42.04
2022-08-30T13:55:33.852Z,41.38
2022-08-30T13:58:00.720Z,41.98
2022-08-30T14:00:28.233Z,40.76
2022-08-30T14:02:59.717Z,40.26
2022-08-30T14:05:49.206Z,40.93
2022-08-30T14:08:47.627Z,41.24
2022-08-30T14:11:21.152Z,41.45
2022-08-30T14:16:41.397Z,41.66
2022-08-30T14:19:09.517Z,41.09
2022-08-30T14:21:36.588Z,42.37
2022-08-30T14:24:07.416Z,42.98
2022-08-30T14:26:48.514Z,42.04
2022-08-30T14:29:22.712Z,40.56
2022-08-30T14:31:51.248Z,40.14
2022-08-30T14:34:18.970Z,40.30
2022-08-30T14:36:46.908Z,41.58
2022-08-30T14:39:17.950Z,41.38
2022-08-30T14:41:51.263Z,41.14
2022-08-30T14:44:21.162Z,39.57
2022-08-30T14:46:48.488Z,38.65
2022-08-30T14:49:16.322Z,38.06
2022-08-30T14:51:46.346Z,37.47
2022-08-30T14:54:13.612Z,37.13
2022-08-30T14:56:41.789Z,38.76
2022-08-30T14:59:09.708Z,38.97
2022-08-30T15:01:40.973Z,39.14
2022-08-30T15:04:09.524Z,39.36
2022-08-30T15:06:39.298Z,40.47
2022-08-30T15:09:09.933Z,40.30
2022-08-30T15:11:38.068Z,41.51
2022-08-30T15:14:06.344Z,43.28
2022-08-30T15:16:37.376Z,43.64
2022-08-30T15:19:07.578Z,44.05
2022-08-30T15:21:42.806Z,43.47
2022-08-30T15:24:14.848Z,43.74
2022-08-30T15:26:44.097Z,42.91
2022-08-30T15:29:14.364Z,43.00
2022-08-30T15:31:42.225Z,42.67
2022-08-30T15:34:14.322Z,41.72
2022-08-30T15:36:43.613Z,40.59
2022-08-30T15:39:12.571Z,38.40
2022-08-30T15:41:40.697Z,36.62
2022-08-30T15:44:12.435Z,35.08
2022-08-30T15:46:44.140Z,33.66
2022-08-30T15:49:18.626Z,33.08
2022-08-30T15:51:47.844Z,32.79
2022-08-30T15:54:18.683Z,32.27
2022-08-30T15:56:46.636Z,31.81
2022-08-30T15:59:18.667Z,31.97
2022-08-30T16:01:47.461Z,31.74
2022-08-30T16:04:18.404Z,31.64
2022-08-30T16:06:46.722Z,31.61
2022-08-30T16:09:13.932Z,31.25
2022-08-30T16:11:41.026Z,31.31
2022-08-30T16:14:08.728Z,31.12
2022-08-30T16:16:37.597Z,31.09
2022-08-30T16:19:05.200Z,30.96
2022-08-30T16:21:36.823Z,30.63
2022-08-30T16:24:06.107Z,30.57
2022-08-30T16:26:34.981Z,30.58
2022-08-30T16:29:04.466Z,30.32
2022-08-30T16:31:35.764Z,30.26
2022-08-30T16:34:04.297Z,30.33
2022-08-30T16:36:32.793Z,30.09
2022-08-30T16:39:00.403Z,30.07
2022-08-30T16:41:28.001Z,29.96
2022-08-30T16:43:55.462Z,29.99
2022-08-30T16:46:27.220Z,29.99
2022-08-30T16:49:01.318Z,29.89
2022-08-30T16:51:31.616Z,29.73
2022-08-30T16:54:03.021Z,29.36
2022-08-30T16:56:32.718Z,29.08
2022-08-30T16:59:02.977Z,28.97
2022-08-30T17:01:48.182Z,28.93
2022-08-30T17:04:18.838Z,28.74
2022-08-30T17:06:49.663Z,28.65
2022-08-30T17:09:18.415Z,28.40
2022-08-30T17:11:46.217Z,28.51
2022-08-30T17:14:13.226Z,28.20
2022-08-30T17:16:41.527Z,28.16
2022-08-30T17:19:09.407Z,28.06
2022-08-30T17:21:36.361Z,27.90
2022-08-30T17:24:06.056Z,27.80
2022-08-30T17:26:35.826Z,27.65
2022-08-30T17:29:04.307Z,27.70
2022-08-30T17:31:31.568Z,27.51
2022-08-30T17:34:04.205Z,27.40
2022-08-30T17:36:35.328Z,27.27
2022-08-30T17:39:11.033Z,27.11
2022-08-30T17:41:49.955Z,26.84
2022-08-30T17:44:20.648Z,26.80
2022-08-30T17:46:47.785Z,26.79
2022-08-30T17:49:15.108Z,26.74
2022-08-30T17:51:44.289Z,26.66
2022-08-30T17:54:12.892Z,26.43
2022-08-30T17:56:41.361Z,26.38
2022-08-30T17:59:10.755Z,26.23
2022-08-30T18:01:38.836Z,26.10
2022-08-30T18:04:06.077Z,25.97
2022-08-30T18:06:34.412Z,25.94
2022-08-30T18:09:04.012Z,25.93
2022-08-30T18:11:36.017Z,25.92
2022-08-30T18:14:03.799Z,26.05
2022-08-30T18:16:34.947Z,25.98
2022-08-30T18:19:09.686Z,25.80
2022-08-30T18:21:38.088Z,25.93
2022-08-30T18:24:06.351Z,25.92
2022-08-30T18:26:35.645Z,25.90
2022-08-30T18:29:03.846Z,25.87
2022-08-30T18:31:30.756Z,26.02
2022-08-30T18:34:00.260Z,25.89
2022-08-30T18:36:28.543Z,25.61
2022-08-30T18:38:55.570Z,25.66
2022-08-30T18:41:22.634Z,25.33
2022-08-30T18:44:01.809Z,25.45
2022-08-30T18:46:36.830Z,25.19
2022-08-30T18:49:03.875Z,25.14
2022-08-30T18:51:32.344Z,25.09
2022-08-30T18:53:59.587Z,25.10
2022-08-30T18:56:28.809Z,24.92
2022-08-30T18:59:00.063Z,24.78
2022-08-30T19:01:26.962Z,24.72
2022-08-30T19:03:54.300Z,24.67
2022-08-30T19:06:21.349Z,24.55
2022-08-30T19:08:49.092Z,24.47
2022-08-30T19:11:16.137Z,24.47
2022-08-30T19:13:43.717Z,24.44
2022-08-30T19:16:12.089Z,24.34
2022-08-30T19:18:40.449Z,24.08
2022-08-30T19:21:13.646Z,24.27
2022-08-30T19:23:41.564Z,24.23
2022-08-30T19:26:10.944Z,24.20
2022-08-30T19:28:38.498Z,24.17
2022-08-30T19:31:06.402Z,24.27
2022-08-30T19:33:34.027Z,24.29
2022-08-30T19:36:03.680Z,24.24
2022-08-30T19:38:31.331Z,24.17
2022-08-30T19:41:00.028Z,24.10
2022-08-30T19:43:28.398Z,23.95
2022-08-30T19:45:59.821Z,23.91
2022-08-30T19:48:31.985Z,24.00
2022-08-30T19:51:10.496Z,23.94
2022-08-30T19:53:37.414Z,23.83
2022-08-30T19:56:04.662Z,23.83
2022-08-30T19:58:32.160Z,23.79
2022-08-30T20:01:10.845Z,23.80
2022-08-30T20:03:47.097Z,23.72
2022-08-30T20:06:16.267Z,23.72
2022-08-30T20:08:44.585Z,23.68
2022-08-30T20:11:20.122Z,23.65
2022-08-30T20:13:48.749Z,23.64
2022-08-30T20:16:17.012Z,23.68
2022-08-30T20:18:44.738Z,23.61
2022-08-30T20:21:14.685Z,23.63
2022-08-30T20:23:43.270Z,23.40
2022-08-30T20:26:11.795Z,23.32
2022-08-30T20:28:39.846Z,23.34
2022-08-30T20:31:08.666Z,23.26
2022-08-30T20:33:38.980Z,23.15
2022-08-30T20:36:09.870Z,23.04
2022-08-30T20:38:37.345Z,23.26
2022-08-30T20:41:11.340Z,23.26
2022-08-30T20:43:39.929Z,23.27
2022-08-30T20:46:13.813Z,23.25
2022-08-30T20:51:11.276Z,23.11
2022-08-30T20:53:38.790Z,23.10
2022-08-30T20:56:05.984Z,22.91
2022-08-30T20:58:32.865Z,22.96
2022-08-30T21:00:59.794Z,22.86
2022-08-30T21:03:27.921Z,22.90
2022-08-30T21:05:56.632Z,22.82
2022-08-30T21:08:24.316Z,22.81
2022-08-30T21:10:52.675Z,22.81
2022-08-30T21:13:20.395Z,22.76
2022-08-30T21:15:54.988Z,22.71
2022-08-30T21:18:23.481Z,22.72
2022-08-30T21:20:50.322Z,22.68
2022-08-30T21:23:17.232Z,22.59
2022-08-30T21:25:44.196Z,22.64
2022-08-30T21:28:11.396Z,22.55
2022-08-30T21:30:38.544Z,22.40
2022-08-30T21:33:07.137Z,22.49
2022-08-30T21:35:53.295Z,22.40
2022-08-30T21:38:20.541Z,22.40
2022-08-30T21:40:48.806Z,22.35
2022-08-30T21:43:16.302Z,22.46
2022-08-30T21:45:45.619Z,22.38
2022-08-30T21:48:14.079Z,22.45
2022-08-30T21:50:42.929Z,22.35
2022-08-30T21:53:10.371Z,22.33
2022-08-30T21:55:37.352Z,22.20
2022-08-30T21:58:04.615Z,22.12
2022-08-30T22:00:33.479Z,22.13
2022-08-30T22:03:00.643Z,22.08
2022-08-30T22:05:27.679Z,22.06
2022-08-30T22:07:54.578Z,22.03
2022-08-30T22:10:21.494Z,21.93
2022-08-30T22:12:48.430Z,22.08
2022-08-30T22:15:15.406Z,22.27
2022-08-30T22:17:43.659Z,22.13
2022-08-30T22:20:11.907Z,22.14
2022-08-30T22:22:45.760Z,22.34
2022-08-30T22:25:12.667Z,22.23
2022-08-30T22:27:39.702Z,22.33
2022-08-30T22:30:07.236Z,22.22
2022-08-30T22:32:34.130Z,22.27
2022-08-30T22:35:01.071Z,22.21
2022-08-30T22:37:27.898Z,22.36
2022-08-30T22:39:54.735Z,22.10
2022-08-30T22:42:21.641Z,22.18
2022-08-30T22:44:48.497Z,22.13
2022-08-30T22:47:15.375Z,22.05
2022-08-30T22:49:43.441Z,22.06
2022-08-30T22:52:10.393Z,21.91
2022-08-30T22:54:37.814Z,21.88
2022-08-30T22:57:04.943Z,21.88
2022-08-30T22:59:32.500Z,21.63
2022-08-30T23:01:59.654Z,21.79
2022-08-30T23:04:26.612Z,21.72
2022-08-30T23:06:53.588Z,21.68
2022-08-30T23:09:20.445Z,21.67
2022-08-30T23:11:47.401Z,21.63
2022-08-30T23:14:14.278Z,21.51
2022-08-30T23:16:41.185Z,21.42
2022-08-30T23:19:08.053Z,21.52
2022-08-30T23:21:35.092Z,21.40
2022-08-30T23:24:20.489Z,21.55
2022-08-30T23:27:05.921Z,21.57
2022-08-30T23:29:53.210Z,21.39
2022-08-30T23:32:40.105Z,21.35
2022-08-30T23:35:29.895Z,21.40
2022-08-30T23:38:18.222Z,21.46
2022-08-30T23:41:03.444Z,21.58
2022-08-30T23:43:48.811Z,21.63
2022-08-30T23:46:34.091Z,21.68
2022-08-30T23:49:20.817Z,21.66
2022-08-30T23:52:06.230Z,21.58
2022-08-30T23:54:57.070Z,21.62
2022-08-30T23:57:44.843Z,21.65
